sensor_id;sensor_type;location;lat;lon;timestamp;temperature;humidity
41694;DHT22;27377;50.666;9.150;2023-02-24T00:01:41;7.40;99.90
41694;DHT22;27377;50.666;9.150;2023-02-24T00:04:10;7.40;99.90
41694;DHT22;27377;50.666;9.150;2023-02-24T00:06:39;7.40;99.90
41694;DHT22;27377;50.666;9.150;2023-02-24T00:09:07;7.40;99.90
41694;DHT22;27377;50.666;9.150;2023-02-24T00:11:40;7.40;99.90
41694;DHT22;27377;50.666;9.150;2023-02-24T00:14:11;7.40;99.90
41694;DHT22;27377;50.666;9.150;2023-02-24T00:16:46;7.40;99.90
41694;DHT22;27377;50.666;9.150;2023-02-24T00:19:17;7.30;99.90
41694;DHT22;27377;50.666;9.150;2023-02-24T00:21:44;7.40;99.90
41694;DHT22;27377;50.666;9.150;2023-02-24T00:24:10;7.40;99.90
41694;DHT22;27377;50.666;9.150;2023-02-24T00:26:40;7.30;99.90
41694;DHT22;27377;50.666;9.150;2023-02-24T00:29:11;7.20;99.90
41694;DHT22;27377;50.666;9.150;2023-02-24T00:31:38;7.20;99.90
41694;DHT22;27377;50.666;9.150;2023-02-24T00:34:08;7.30;99.90
41694;DHT22;27377;50.666;9.150;2023-02-24T00:36:33;7.30;99.90
41694;DHT22;27377;50.666;9.150;2023-02-24T00:39:04;7.30;99.90
41694;DHT22;27377;50.666;9.150;2023-02-24T00:41:41;7.20;99.90
41694;DHT22;27377;50.666;9.150;2023-02-24T00:44:08;7.30;99.90
41694;DHT22;27377;50.666;9.150;2023-02-24T00:46:43;7.20;99.90
41694;DHT22;27377;50.666;9.150;2023-02-24T00:49:18;7.20;99.90
41694;DHT22;27377;50.666;9.150;2023-02-24T00:51:47;7.20;99.90
41694;DHT22;27377;50.666;9.150;2023-02-24T00:54:13;7.30;99.90
41694;DHT22;27377;50.666;9.150;2023-02-24T00:56:41;7.20;99.90
41694;DHT22;27377;50.666;9.150;2023-02-24T00:59:08;7.20;99.90
41694;DHT22;27377;50.666;9.150;2023-02-24T01:01:34;7.20;99.90
41694;DHT22;27377;50.666;9.150;2023-02-24T01:04:02;7.20;99.90
41694;DHT22;27377;50.666;9.150;2023-02-24T01:06:41;7.10;99.90
41694;DHT22;27377;50.666;9.150;2023-02-24T01:09:10;7.10;99.90
41694;DHT22;27377;50.666;9.150;2023-02-24T01:11:40;7.10;99.90
41694;DHT22;27377;50.666;9.150;2023-02-24T01:14:28;7.00;99.90
41694;DHT22;27377;50.666;9.150;2023-02-24T01:16:54;7.00;99.90
41694;DHT22;27377;50.666;9.150;2023-02-24T01:19:23;7.00;99.90
41694;DHT22;27377;50.666;9.150;2023-02-24T01:21:49;7.00;99.90
41694;DHT22;27377;50.666;9.150;2023-02-24T01:24:41;7.00;99.90
41694;DHT22;27377;50.666;9.150;2023-02-24T01:27:06;6.90;99.90
41694;DHT22;27377;50.666;9.150;2023-02-24T01:29:32;6.90;99.90
41694;DHT22;27377;50.666;9.150;2023-02-24T01:31:57;6.90;99.90
41694;DHT22;27377;50.666;9.150;2023-02-24T01:34:25;7.00;99.90
41694;DHT22;27377;50.666;9.150;2023-02-24T01:36:51;7.00;99.90
41694;DHT22;27377;50.666;9.150;2023-02-24T01:39:17;7.00;99.90
41694;DHT22;27377;50.666;9.150;2023-02-24T01:41:45;6.90;99.90
41694;DHT22;27377;50.666;9.150;2023-02-24T01:46:39;6.90;99.90
41694;DHT22;27377;50.666;9.150;2023-02-24T01:49:23;6.90;99.90
41694;DHT22;27377;50.666;9.150;2023-02-24T01:51:56;6.90;99.90
41694;DHT22;27377;50.666;9.150;2023-02-24T01:54:26;6.90;99.90
41694;DHT22;27377;50.666;9.150;2023-02-24T01:56:53;6.90;99.90
41694;DHT22;27377;50.666;9.150;2023-02-24T01:59:22;6.80;99.90
41694;DHT22;27377;50.666;9.150;2023-02-24T02:01:48;6.80;99.90
41694;DHT22;27377;50.666;9.150;2023-02-24T02:04:22;6.80;99.90
41694;DHT22;27377;50.666;9.150;2023-02-24T02:06:52;6.80;99.90
41694;DHT22;27377;50.666;9.150;2023-02-24T02:09:18;6.80;99.90
41694;DHT22;27377;50.666;9.150;2023-02-24T02:11:44;6.70;99.90
41694;DHT22;27377;50.666;9.150;2023-02-24T02:14:18;6.70;99.90
41694;DHT22;27377;50.666;9.150;2023-02-24T02:31:17;6.60;99.90
41694;DHT22;27377;50.666;9.150;2023-02-24T02:44:49;6.20;99.90
41694;DHT22;27377;50.666;9.150;2023-02-24T02:47:51;6.20;99.90
41694;DHT22;27377;50.666;9.150;2023-02-24T02:52:57;6.10;99.90
41694;DHT22;27377;50.666;9.150;2023-02-24T02:57:58;6.00;99.90
41694;DHT22;27377;50.666;9.150;2023-02-24T03:00:28;6.00;99.90
41694;DHT22;27377;50.666;9.150;2023-02-24T03:03:03;5.90;99.90
41694;DHT22;27377;50.666;9.150;2023-02-24T03:05:48;5.90;99.90
41694;DHT22;27377;50.666;9.150;2023-02-24T03:08:18;5.90;99.90
41694;DHT22;27377;50.666;9.150;2023-02-24T03:10:46;5.90;99.90
41694;DHT22;27377;50.666;9.150;2023-02-24T03:13:20;5.90;99.90
41694;DHT22;27377;50.666;9.150;2023-02-24T03:15:49;5.90;99.90
41694;DHT22;27377;50.666;9.150;2023-02-24T03:18:24;5.80;99.90
41694;DHT22;27377;50.666;9.150;2023-02-24T03:21:05;5.80;99.90
41694;DHT22;27377;50.666;9.150;2023-02-24T03:23:34;5.80;99.90
41694;DHT22;27377;50.666;9.150;2023-02-24T03:28:36;5.90;99.90
41694;DHT22;27377;50.666;9.150;2023-02-24T03:31:15;5.90;99.90
41694;DHT22;27377;50.666;9.150;2023-02-24T03:33:53;6.00;99.90
41694;DHT22;27377;50.666;9.150;2023-02-24T03:36:21;6.00;99.90
41694;DHT22;27377;50.666;9.150;2023-02-24T03:38:47;6.00;99.90
41694;DHT22;27377;50.666;9.150;2023-02-24T03:41:14;6.00;99.90
41694;DHT22;27377;50.666;9.150;2023-02-24T03:43:45;6.00;99.90
41694;DHT22;27377;50.666;9.150;2023-02-24T03:46:13;6.00;99.90
41694;DHT22;27377;50.666;9.150;2023-02-24T03:48:47;5.90;99.90
41694;DHT22;27377;50.666;9.150;2023-02-24T03:51:17;5.90;99.90
41694;DHT22;27377;50.666;9.150;2023-02-24T03:56:30;5.80;99.90
41694;DHT22;27377;50.666;9.150;2023-02-24T03:59:07;5.80;99.90
41694;DHT22;27377;50.666;9.150;2023-02-24T04:02:03;5.90;99.90
41694;DHT22;27377;50.666;9.150;2023-02-24T04:04:38;5.90;99.90
41694;DHT22;27377;50.666;9.150;2023-02-24T04:07:16;5.90;99.90
41694;DHT22;27377;50.666;9.150;2023-02-24T04:12:31;5.80;99.90
41694;DHT22;27377;50.666;9.150;2023-02-24T04:15:14;5.80;99.90
41694;DHT22;27377;50.666;9.150;2023-02-24T04:17:52;5.80;99.90
41694;DHT22;27377;50.666;9.150;2023-02-24T04:20:21;5.80;99.90
41694;DHT22;27377;50.666;9.150;2023-02-24T04:23:00;5.80;99.90
41694;DHT22;27377;50.666;9.150;2023-02-24T04:25:33;5.80;99.90
41694;DHT22;27377;50.666;9.150;2023-02-24T04:28:00;5.80;99.90
41694;DHT22;27377;50.666;9.150;2023-02-24T04:30:36;5.80;99.90
41694;DHT22;27377;50.666;9.150;2023-02-24T04:33:06;5.80;99.90
41694;DHT22;27377;50.666;9.150;2023-02-24T04:35:34;5.80;99.90
41694;DHT22;27377;50.666;9.150;2023-02-24T04:38:00;5.80;99.90
41694;DHT22;27377;50.666;9.150;2023-02-24T04:40:25;5.90;99.90
41694;DHT22;27377;50.666;9.150;2023-02-24T04:42:52;5.90;99.90
41694;DHT22;27377;50.666;9.150;2023-02-24T04:45:21;6.00;99.90
41694;DHT22;27377;50.666;9.150;2023-02-24T04:47:48;6.00;99.90
41694;DHT22;27377;50.666;9.150;2023-02-24T04:50:19;6.10;99.90
41694;DHT22;27377;50.666;9.150;2023-02-24T04:53:06;6.10;99.90
41694;DHT22;27377;50.666;9.150;2023-02-24T04:55:35;6.10;99.90
41694;DHT22;27377;50.666;9.150;2023-02-24T04:58:05;6.10;99.90
41694;DHT22;27377;50.666;9.150;2023-02-24T05:00:30;6.10;99.90
41694;DHT22;27377;50.666;9.150;2023-02-24T05:03:03;6.10;99.90
41694;DHT22;27377;50.666;9.150;2023-02-24T05:05:30;6.20;99.90
41694;DHT22;27377;50.666;9.150;2023-02-24T05:08:03;6.20;99.90
41694;DHT22;27377;50.666;9.150;2023-02-24T05:10:44;6.20;99.90
41694;DHT22;27377;50.666;9.150;2023-02-24T05:13:27;6.20;99.90
41694;DHT22;27377;50.666;9.150;2023-02-24T05:16:05;6.20;99.90
41694;DHT22;27377;50.666;9.150;2023-02-24T05:18:32;6.20;99.90
41694;DHT22;27377;50.666;9.150;2023-02-24T05:21:12;6.30;99.90
41694;DHT22;27377;50.666;9.150;2023-02-24T05:24:00;6.20;99.90
41694;DHT22;27377;50.666;9.150;2023-02-24T05:26:34;6.20;99.90
41694;DHT22;27377;50.666;9.150;2023-02-24T05:29:06;6.30;99.90
41694;DHT22;27377;50.666;9.150;2023-02-24T05:31:32;6.30;99.90
41694;DHT22;27377;50.666;9.150;2023-02-24T05:34:06;6.30;99.90
41694;DHT22;27377;50.666;9.150;2023-02-24T05:36:36;6.30;99.90
41694;DHT22;27377;50.666;9.150;2023-02-24T05:39:03;6.30;99.90
41694;DHT22;27377;50.666;9.150;2023-02-24T05:41:35;6.30;99.90
41694;DHT22;27377;50.666;9.150;2023-02-24T05:44:19;6.30;99.90
41694;DHT22;27377;50.666;9.150;2023-02-24T05:46:55;6.30;99.90
41694;DHT22;27377;50.666;9.150;2023-02-24T05:49:29;6.30;99.90
41694;DHT22;27377;50.666;9.150;2023-02-24T05:52:04;6.30;99.90
41694;DHT22;27377;50.666;9.150;2023-02-24T05:54:39;6.30;99.90
41694;DHT22;27377;50.666;9.150;2023-02-24T05:57:13;6.30;99.90
41694;DHT22;27377;50.666;9.150;2023-02-24T05:59:42;6.20;99.90
41694;DHT22;27377;50.666;9.150;2023-02-24T06:02:14;6.20;99.90
41694;DHT22;27377;50.666;9.150;2023-02-24T06:04:42;6.20;99.90
41694;DHT22;27377;50.666;9.150;2023-02-24T06:07:23;6.20;99.90
41694;DHT22;27377;50.666;9.150;2023-02-24T06:10:00;6.20;99.90
41694;DHT22;27377;50.666;9.150;2023-02-24T06:12:31;6.20;99.90
41694;DHT22;27377;50.666;9.150;2023-02-24T06:15:01;6.20;99.90
41694;DHT22;27377;50.666;9.150;2023-02-24T06:17:35;6.20;99.90
41694;DHT22;27377;50.666;9.150;2023-02-24T06:20:01;6.20;99.90
41694;DHT22;27377;50.666;9.150;2023-02-24T06:22:32;6.20;99.90
41694;DHT22;27377;50.666;9.150;2023-02-24T06:25:07;6.20;99.90
41694;DHT22;27377;50.666;9.150;2023-02-24T06:27:33;6.20;99.90
41694;DHT22;27377;50.666;9.150;2023-02-24T06:30:04;6.20;99.90
41694;DHT22;27377;50.666;9.150;2023-02-24T06:32:34;6.20;99.90
41694;DHT22;27377;50.666;9.150;2023-02-24T06:35:00;6.20;99.90
41694;DHT22;27377;50.666;9.150;2023-02-24T06:37:26;6.20;99.90
41694;DHT22;27377;50.666;9.150;2023-02-24T06:39:54;6.20;99.90
41694;DHT22;27377;50.666;9.150;2023-02-24T06:42:20;6.20;99.90
41694;DHT22;27377;50.666;9.150;2023-02-24T06:44:45;6.20;99.90
41694;DHT22;27377;50.666;9.150;2023-02-24T06:47:12;6.10;99.90
41694;DHT22;27377;50.666;9.150;2023-02-24T06:49:39;6.10;99.90
41694;DHT22;27377;50.666;9.150;2023-02-24T06:52:06;6.10;99.90
41694;DHT22;27377;50.666;9.150;2023-02-24T06:54:32;6.10;99.90
41694;DHT22;27377;50.666;9.150;2023-02-24T06:57:00;6.20;99.90
41694;DHT22;27377;50.666;9.150;2023-02-24T06:59:28;6.10;99.90
41694;DHT22;27377;50.666;9.150;2023-02-24T07:01:58;6.10;99.90
41694;DHT22;27377;50.666;9.150;2023-02-24T07:04:24;6.10;99.90
41694;DHT22;27377;50.666;9.150;2023-02-24T07:06:52;6.10;99.90
41694;DHT22;27377;50.666;9.150;2023-02-24T07:09:22;6.10;99.90
41694;DHT22;27377;50.666;9.150;2023-02-24T07:11:49;6.10;99.90
41694;DHT22;27377;50.666;9.150;2023-02-24T07:14:20;6.10;99.90
41694;DHT22;27377;50.666;9.150;2023-02-24T07:16:47;6.10;99.90
41694;DHT22;27377;50.666;9.150;2023-02-24T07:19:25;6.10;99.90
41694;DHT22;27377;50.666;9.150;2023-02-24T07:22:01;6.10;99.90
41694;DHT22;27377;50.666;9.150;2023-02-24T07:24:35;6.20;99.90
41694;DHT22;27377;50.666;9.150;2023-02-24T07:27:06;6.20;99.90
41694;DHT22;27377;50.666;9.150;2023-02-24T07:29:35;6.10;99.90
41694;DHT22;27377;50.666;9.150;2023-02-24T07:32:04;6.10;99.90
41694;DHT22;27377;50.666;9.150;2023-02-24T07:34:30;6.10;99.90
41694;DHT22;27377;50.666;9.150;2023-02-24T07:36:58;6.10;99.90
41694;DHT22;27377;50.666;9.150;2023-02-24T07:39:27;6.20;99.90
41694;DHT22;27377;50.666;9.150;2023-02-24T07:41:53;6.10;99.90
41694;DHT22;27377;50.666;9.150;2023-02-24T07:44:20;6.10;99.90
41694;DHT22;27377;50.666;9.150;2023-02-24T07:46:46;6.10;99.90
41694;DHT22;27377;50.666;9.150;2023-02-24T07:49:20;6.10;99.90
41694;DHT22;27377;50.666;9.150;2023-02-24T07:51:53;6.20;99.90
41694;DHT22;27377;50.666;9.150;2023-02-24T07:54:23;6.10;99.90
41694;DHT22;27377;50.666;9.150;2023-02-24T07:56:50;6.10;99.90
41694;DHT22;27377;50.666;9.150;2023-02-24T07:59:33;6.10;99.90
41694;DHT22;27377;50.666;9.150;2023-02-24T08:02:03;6.20;99.90
41694;DHT22;27377;50.666;9.150;2023-02-24T08:04:34;6.10;99.90
41694;DHT22;27377;50.666;9.150;2023-02-24T08:07:11;6.20;99.90
41694;DHT22;27377;50.666;9.150;2023-02-24T08:09:39;6.10;99.90
41694;DHT22;27377;50.666;9.150;2023-02-24T08:12:12;6.20;99.90
41694;DHT22;27377;50.666;9.150;2023-02-24T08:14:43;6.20;99.90
41694;DHT22;27377;50.666;9.150;2023-02-24T08:17:10;6.20;99.90
41694;DHT22;27377;50.666;9.150;2023-02-24T08:19:40;6.20;99.90
41694;DHT22;27377;50.666;9.150;2023-02-24T08:22:08;6.20;99.90
41694;DHT22;27377;50.666;9.150;2023-02-24T08:24:58;6.20;99.90
41694;DHT22;27377;50.666;9.150;2023-02-24T08:27:33;6.20;99.90
41694;DHT22;27377;50.666;9.150;2023-02-24T08:30:04;6.20;99.90
41694;DHT22;27377;50.666;9.150;2023-02-24T08:32:41;6.20;99.90
41694;DHT22;27377;50.666;9.150;2023-02-24T08:35:29;6.20;99.90
41694;DHT22;27377;50.666;9.150;2023-02-24T08:38:19;6.20;99.90
41694;DHT22;27377;50.666;9.150;2023-02-24T08:40:48;6.30;99.90
41694;DHT22;27377;50.666;9.150;2023-02-24T08:43:30;6.30;99.90
41694;DHT22;27377;50.666;9.150;2023-02-24T08:46:18;6.30;99.90
41694;DHT22;27377;50.666;9.150;2023-02-24T08:48:57;6.30;99.90
41694;DHT22;27377;50.666;9.150;2023-02-24T08:51:33;6.30;99.90
41694;DHT22;27377;50.666;9.150;2023-02-24T08:54:05;6.40;99.90
41694;DHT22;27377;50.666;9.150;2023-02-24T08:56:41;6.40;99.90
41694;DHT22;27377;50.666;9.150;2023-02-24T08:59:12;6.30;99.90
41694;DHT22;27377;50.666;9.150;2023-02-24T09:02:18;6.30;99.90
41694;DHT22;27377;50.666;9.150;2023-02-24T09:05:05;6.40;99.90
41694;DHT22;27377;50.666;9.150;2023-02-24T09:07:41;6.40;99.90
41694;DHT22;27377;50.666;9.150;2023-02-24T09:10:14;6.40;99.90
41694;DHT22;27377;50.666;9.150;2023-02-24T09:12:45;6.40;99.90
41694;DHT22;27377;50.666;9.150;2023-02-24T09:15:15;6.40;99.90
41694;DHT22;27377;50.666;9.150;2023-02-24T09:17:44;6.40;99.90
41694;DHT22;27377;50.666;9.150;2023-02-24T09:20:16;6.40;99.90
41694;DHT22;27377;50.666;9.150;2023-02-24T09:22:56;6.40;99.90
41694;DHT22;27377;50.666;9.150;2023-02-24T09:25:31;6.40;99.90
41694;DHT22;27377;50.666;9.150;2023-02-24T09:28:17;6.40;99.90
41694;DHT22;27377;50.666;9.150;2023-02-24T09:30:49;6.30;99.90
41694;DHT22;27377;50.666;9.150;2023-02-24T09:33:22;6.30;99.90
41694;DHT22;27377;50.666;9.150;2023-02-24T09:36:03;6.30;99.90
41694;DHT22;27377;50.666;9.150;2023-02-24T09:38:43;6.30;99.90
41694;DHT22;27377;50.666;9.150;2023-02-24T09:41:48;6.30;99.90
41694;DHT22;27377;50.666;9.150;2023-02-24T09:44:39;6.30;99.90
41694;DHT22;27377;50.666;9.150;2023-02-24T09:47:32;6.40;99.90
41694;DHT22;27377;50.666;9.150;2023-02-24T09:52:44;6.40;99.90
41694;DHT22;27377;50.666;9.150;2023-02-24T09:55:30;6.40;99.90
41694;DHT22;27377;50.666;9.150;2023-02-24T09:58:39;6.40;99.90
41694;DHT22;27377;50.666;9.150;2023-02-24T10:01:32;6.40;99.90
41694;DHT22;27377;50.666;9.150;2023-02-24T10:04:06;6.40;99.90
41694;DHT22;27377;50.666;9.150;2023-02-24T10:07:10;6.40;99.90
41694;DHT22;27377;50.666;9.150;2023-02-24T10:09:48;6.40;99.90
41694;DHT22;27377;50.666;9.150;2023-02-24T10:15:04;6.50;99.90
41694;DHT22;27377;50.666;9.150;2023-02-24T10:17:53;6.50;99.90
41694;DHT22;27377;50.666;9.150;2023-02-24T10:20:24;6.50;99.90
41694;DHT22;27377;50.666;9.150;2023-02-24T10:23:04;6.50;99.90
41694;DHT22;27377;50.666;9.150;2023-02-24T10:25:53;6.50;99.90
41694;DHT22;27377;50.666;9.150;2023-02-24T10:28:39;6.50;99.90
41694;DHT22;27377;50.666;9.150;2023-02-24T10:31:46;6.50;99.90
41694;DHT22;27377;50.666;9.150;2023-02-24T10:34:14;6.50;99.90
41694;DHT22;27377;50.666;9.150;2023-02-24T10:36:51;6.50;99.90
41694;DHT22;27377;50.666;9.150;2023-02-24T10:39:23;6.50;99.90
41694;DHT22;27377;50.666;9.150;2023-02-24T10:42:03;6.60;99.90
41694;DHT22;27377;50.666;9.150;2023-02-24T10:44:47;6.60;99.90
41694;DHT22;27377;50.666;9.150;2023-02-24T10:47:25;6.50;99.90
41694;DHT22;27377;50.666;9.150;2023-02-24T10:50:00;6.60;99.90
41694;DHT22;27377;50.666;9.150;2023-02-24T10:52:37;6.60;99.90
41694;DHT22;27377;50.666;9.150;2023-02-24T10:55:30;6.60;99.90
41694;DHT22;27377;50.666;9.150;2023-02-24T10:58:30;6.60;99.90
41694;DHT22;27377;50.666;9.150;2023-02-24T11:06:25;6.60;99.90
41694;DHT22;27377;50.666;9.150;2023-02-24T11:09:24;6.60;99.90
41694;DHT22;27377;50.666;9.150;2023-02-24T11:11:55;6.50;99.90
41694;DHT22;27377;50.666;9.150;2023-02-24T11:15:34;6.60;99.90
41694;DHT22;27377;50.666;9.150;2023-02-24T11:17:57;6.60;99.90
41694;DHT22;27377;50.666;9.150;2023-02-24T11:20:32;6.50;99.90
41694;DHT22;27377;50.666;9.150;2023-02-24T11:23:01;6.60;99.90
41694;DHT22;27377;50.666;9.150;2023-02-24T11:25:39;6.60;99.90
41694;DHT22;27377;50.666;9.150;2023-02-24T11:31:14;6.50;99.90
41694;DHT22;27377;50.666;9.150;2023-02-24T11:33:54;6.50;99.90
41694;DHT22;27377;50.666;9.150;2023-02-24T11:36:36;6.40;99.90
41694;DHT22;27377;50.666;9.150;2023-02-24T11:39:25;6.40;99.90
41694;DHT22;27377;50.666;9.150;2023-02-24T11:41:56;6.40;99.90
41694;DHT22;27377;50.666;9.150;2023-02-24T11:46:53;6.50;99.90
41694;DHT22;27377;50.666;9.150;2023-02-24T11:49:39;6.40;99.90
41694;DHT22;27377;50.666;9.150;2023-02-24T11:52:11;6.40;99.90
41694;DHT22;27377;50.666;9.150;2023-02-24T11:54:44;6.40;99.90
41694;DHT22;27377;50.666;9.150;2023-02-24T11:57:18;6.30;99.90
41694;DHT22;27377;50.666;9.150;2023-02-24T11:59:50;6.40;99.90
41694;DHT22;27377;50.666;9.150;2023-02-24T12:02:43;6.30;99.90
41694;DHT22;27377;50.666;9.150;2023-02-24T12:05:18;6.30;99.90
41694;DHT22;27377;50.666;9.150;2023-02-24T12:08:00;6.40;99.90
41694;DHT22;27377;50.666;9.150;2023-02-24T12:10:34;6.30;99.90
41694;DHT22;27377;50.666;9.150;2023-02-24T12:13:18;6.30;99.90
41694;DHT22;27377;50.666;9.150;2023-02-24T12:18:31;6.40;99.90
41694;DHT22;27377;50.666;9.150;2023-02-24T12:21:06;6.40;99.90
41694;DHT22;27377;50.666;9.150;2023-02-24T12:26:18;6.30;99.90
41694;DHT22;27377;50.666;9.150;2023-02-24T12:34:39;6.30;99.90
41694;DHT22;27377;50.666;9.150;2023-02-24T12:43:18;6.20;99.90
41694;DHT22;27377;50.666;9.150;2023-02-24T12:51:02;6.20;99.90
41694;DHT22;27377;50.666;9.150;2023-02-24T12:54:04;6.20;99.90
41694;DHT22;27377;50.666;9.150;2023-02-24T12:57:02;6.20;99.90
41694;DHT22;27377;50.666;9.150;2023-02-24T12:59:35;6.20;99.90
41694;DHT22;27377;50.666;9.150;2023-02-24T13:04:55;6.20;99.90
41694;DHT22;27377;50.666;9.150;2023-02-24T13:15:25;6.10;99.90
41694;DHT22;27377;50.666;9.150;2023-02-24T13:17:53;6.10;99.90
41694;DHT22;27377;50.666;9.150;2023-02-24T13:20:31;6.10;99.90
41694;DHT22;27377;50.666;9.150;2023-02-24T13:22:59;6.10;99.90
41694;DHT22;27377;50.666;9.150;2023-02-24T13:25:35;6.10;99.90
41694;DHT22;27377;50.666;9.150;2023-02-24T13:28:04;6.10;99.90
41694;DHT22;27377;50.666;9.150;2023-02-24T13:33:20;6.10;99.90
41694;DHT22;27377;50.666;9.150;2023-02-24T13:35:48;6.10;99.90
41694;DHT22;27377;50.666;9.150;2023-02-24T13:38:33;6.10;99.90
41694;DHT22;27377;50.666;9.150;2023-02-24T13:41:59;6.10;99.90
41694;DHT22;27377;50.666;9.150;2023-02-24T13:46:25;5.90;99.90
41694;DHT22;27377;50.666;9.150;2023-02-24T13:49:03;5.90;99.90
41694;DHT22;27377;50.666;9.150;2023-02-24T13:52:01;5.80;99.90
41694;DHT22;27377;50.666;9.150;2023-02-24T14:03:20;5.60;99.90
41694;DHT22;27377;50.666;9.150;2023-02-24T14:05:49;5.50;99.90
41694;DHT22;27377;50.666;9.150;2023-02-24T14:08:42;5.50;99.90
41694;DHT22;27377;50.666;9.150;2023-02-24T14:11:13;5.40;99.90
41694;DHT22;27377;50.666;9.150;2023-02-24T14:13:44;5.40;99.90
41694;DHT22;27377;50.666;9.150;2023-02-24T14:16:18;5.30;99.90
41694;DHT22;27377;50.666;9.150;2023-02-24T14:18:54;5.20;99.90
41694;DHT22;27377;50.666;9.150;2023-02-24T14:21:23;5.20;99.90
41694;DHT22;27377;50.666;9.150;2023-02-24T14:24:03;5.20;99.90
41694;DHT22;27377;50.666;9.150;2023-02-24T14:26:43;5.20;99.90
41694;DHT22;27377;50.666;9.150;2023-02-24T14:29:12;5.10;99.90
41694;DHT22;27377;50.666;9.150;2023-02-24T14:31:40;5.10;99.90
41694;DHT22;27377;50.666;9.150;2023-02-24T14:34:05;5.10;99.90
41694;DHT22;27377;50.666;9.150;2023-02-24T14:36:41;5.10;99.90
41694;DHT22;27377;50.666;9.150;2023-02-24T14:39:13;5.10;99.90
41694;DHT22;27377;50.666;9.150;2023-02-24T14:41:40;5.10;99.90
41694;DHT22;27377;50.666;9.150;2023-02-24T14:44:19;5.00;99.90
41694;DHT22;27377;50.666;9.150;2023-02-24T14:46:57;5.00;99.90
41694;DHT22;27377;50.666;9.150;2023-02-24T14:49:31;5.00;99.90
41694;DHT22;27377;50.666;9.150;2023-02-24T14:55:17;4.90;99.90
41694;DHT22;27377;50.666;9.150;2023-02-24T14:57:53;4.90;99.90
41694;DHT22;27377;50.666;9.150;2023-02-24T15:00:30;4.90;99.90
41694;DHT22;27377;50.666;9.150;2023-02-24T15:05:57;4.80;99.90
41694;DHT22;27377;50.666;9.150;2023-02-24T15:08:34;4.80;99.90
41694;DHT22;27377;50.666;9.150;2023-02-24T15:13:44;4.80;99.90
41694;DHT22;27377;50.666;9.150;2023-02-24T15:16:21;4.80;99.90
41694;DHT22;27377;50.666;9.150;2023-02-24T15:18:52;4.70;99.90
41694;DHT22;27377;50.666;9.150;2023-02-24T15:21:21;4.70;99.90
41694;DHT22;27377;50.666;9.150;2023-02-24T15:23:48;4.70;99.90
41694;DHT22;27377;50.666;9.150;2023-02-24T15:26:31;4.70;99.90
41694;DHT22;27377;50.666;9.150;2023-02-24T15:29:11;4.70;99.90
41694;DHT22;27377;50.666;9.150;2023-02-24T15:31:37;4.70;99.90
41694;DHT22;27377;50.666;9.150;2023-02-24T15:34:02;4.60;99.90
41694;DHT22;27377;50.666;9.150;2023-02-24T15:36:33;4.60;99.90
41694;DHT22;27377;50.666;9.150;2023-02-24T15:39:02;4.60;99.90
41694;DHT22;27377;50.666;9.150;2023-02-24T15:41:41;4.60;99.90
41694;DHT22;27377;50.666;9.150;2023-02-24T15:44:27;4.50;99.90
41694;DHT22;27377;50.666;9.150;2023-02-24T15:46:54;4.50;99.90
41694;DHT22;27377;50.666;9.150;2023-02-24T15:49:20;4.50;99.90
41694;DHT22;27377;50.666;9.150;2023-02-24T15:51:48;4.50;99.90
41694;DHT22;27377;50.666;9.150;2023-02-24T15:54:29;4.50;99.90
41694;DHT22;27377;50.666;9.150;2023-02-24T15:57:00;4.50;99.90
41694;DHT22;27377;50.666;9.150;2023-02-24T15:59:26;4.40;99.90
41694;DHT22;27377;50.666;9.150;2023-02-24T16:01:53;4.40;99.90
41694;DHT22;27377;50.666;9.150;2023-02-24T16:04:19;4.40;99.90
41694;DHT22;27377;50.666;9.150;2023-02-24T16:06:48;4.30;99.90
41694;DHT22;27377;50.666;9.150;2023-02-24T16:09:34;4.30;99.90
41694;DHT22;27377;50.666;9.150;2023-02-24T16:12:03;4.30;99.90
41694;DHT22;27377;50.666;9.150;2023-02-24T16:14:29;4.30;99.90
41694;DHT22;27377;50.666;9.150;2023-02-24T16:16:55;4.20;99.90
41694;DHT22;27377;50.666;9.150;2023-02-24T16:19:22;4.20;99.90
41694;DHT22;27377;50.666;9.150;2023-02-24T16:21:47;4.20;99.90
41694;DHT22;27377;50.666;9.150;2023-02-24T16:24:13;4.10;99.90
41694;DHT22;27377;50.666;9.150;2023-02-24T16:26:39;4.10;99.90
41694;DHT22;27377;50.666;9.150;2023-02-24T16:29:09;4.10;99.90
41694;DHT22;27377;50.666;9.150;2023-02-24T16:31:38;4.10;99.90
41694;DHT22;27377;50.666;9.150;2023-02-24T16:34:04;4.10;99.90
41694;DHT22;27377;50.666;9.150;2023-02-24T16:36:30;4.10;99.90
41694;DHT22;27377;50.666;9.150;2023-02-24T16:38:56;4.00;99.90
41694;DHT22;27377;50.666;9.150;2023-02-24T16:41:22;4.00;99.90
41694;DHT22;27377;50.666;9.150;2023-02-24T16:43:49;4.00;99.90
41694;DHT22;27377;50.666;9.150;2023-02-24T16:46:18;3.90;99.90
41694;DHT22;27377;50.666;9.150;2023-02-24T16:48:46;3.90;99.90
41694;DHT22;27377;50.666;9.150;2023-02-24T16:51:12;3.90;99.90
41694;DHT22;27377;50.666;9.150;2023-02-24T16:53:38;4.00;99.90
41694;DHT22;27377;50.666;9.150;2023-02-24T16:56:03;4.00;99.90
41694;DHT22;27377;50.666;9.150;2023-02-24T16:58:30;3.90;99.90
41694;DHT22;27377;50.666;9.150;2023-02-24T17:00:57;3.90;99.90
41694;DHT22;27377;50.666;9.150;2023-02-24T17:03:42;3.90;99.90
41694;DHT22;27377;50.666;9.150;2023-02-24T17:06:09;4.00;99.90
41694;DHT22;27377;50.666;9.150;2023-02-24T17:08:34;4.00;99.90
41694;DHT22;27377;50.666;9.150;2023-02-24T17:11:00;4.00;99.90
41694;DHT22;27377;50.666;9.150;2023-02-24T17:13:25;4.00;99.90
41694;DHT22;27377;50.666;9.150;2023-02-24T17:15:52;4.00;99.90
41694;DHT22;27377;50.666;9.150;2023-02-24T17:18:25;4.00;99.90
41694;DHT22;27377;50.666;9.150;2023-02-24T17:20:51;4.10;99.90
41694;DHT22;27377;50.666;9.150;2023-02-24T17:23:18;4.10;99.90
41694;DHT22;27377;50.666;9.150;2023-02-24T17:25:44;4.10;99.90
41694;DHT22;27377;50.666;9.150;2023-02-24T17:28:10;4.10;99.90
41694;DHT22;27377;50.666;9.150;2023-02-24T17:30:36;4.10;99.90
41694;DHT22;27377;50.666;9.150;2023-02-24T17:33:02;4.10;99.90
41694;DHT22;27377;50.666;9.150;2023-02-24T17:35:28;4.10;99.90
41694;DHT22;27377;50.666;9.150;2023-02-24T17:37:54;4.10;99.90
41694;DHT22;27377;50.666;9.150;2023-02-24T17:40:20;4.20;99.90
41694;DHT22;27377;50.666;9.150;2023-02-24T17:42:45;4.10;99.90
41694;DHT22;27377;50.666;9.150;2023-02-24T17:45:12;4.20;99.90
41694;DHT22;27377;50.666;9.150;2023-02-24T17:47:38;4.20;99.90
41694;DHT22;27377;50.666;9.150;2023-02-24T17:50:07;4.20;99.90
41694;DHT22;27377;50.666;9.150;2023-02-24T17:52:33;4.30;99.90
41694;DHT22;27377;50.666;9.150;2023-02-24T17:54:59;4.30;99.90
41694;DHT22;27377;50.666;9.150;2023-02-24T17:57:25;4.30;99.90
41694;DHT22;27377;50.666;9.150;2023-02-24T17:59:54;4.30;99.90
41694;DHT22;27377;50.666;9.150;2023-02-24T18:02:20;4.30;99.90
41694;DHT22;27377;50.666;9.150;2023-02-24T18:04:48;4.30;99.90
41694;DHT22;27377;50.666;9.150;2023-02-24T18:07:13;4.30;99.90
41694;DHT22;27377;50.666;9.150;2023-02-24T18:09:39;4.30;99.90
41694;DHT22;27377;50.666;9.150;2023-02-24T18:12:05;4.30;99.90
41694;DHT22;27377;50.666;9.150;2023-02-24T18:14:30;4.40;99.90
41694;DHT22;27377;50.666;9.150;2023-02-24T18:16:56;4.30;99.90